sensor_id;sensor_type;location;lat;lon;timestamp;P1;durP1;ratioP1;P2;durP2;ratioP2
14377;SDS011;7272;53.668;9.578;2023-04-25T00:01:50;11.80;;;5.68;;
14377;SDS011;7272;53.668;9.578;2023-04-25T00:04:52;11.13;;;5.22;;
14377;SDS011;7272;53.668;9.578;2023-04-25T00:07:58;11.33;;;4.57;;
14377;SDS011;7272;53.668;9.578;2023-04-25T00:11:00;11.30;;;5.10;;
14377;SDS011;7272;53.668;9.578;2023-04-25T00:14:02;16.97;;;4.90;;
14377;SDS011;7272;53.668;9.578;2023-04-25T00:17:03;14.17;;;4.43;;
14377;SDS011;7272;53.668;9.578;2023-04-25T00:20:06;9.80;;;4.87;;
14377;SDS011;7272;53.668;9.578;2023-04-25T00:23:09;11.90;;;5.23;;
14377;SDS011;7272;53.668;9.578;2023-04-25T00:26:11;12.93;;;4.27;;
14377;SDS011;7272;53.668;9.578;2023-04-25T00:29:12;13.07;;;4.57;;
14377;SDS011;7272;53.668;9.578;2023-04-25T00:32:13;14.63;;;4.60;;
14377;SDS011;7272;53.668;9.578;2023-04-25T00:35:15;13.03;;;6.13;;
14377;SDS011;7272;53.668;9.578;2023-04-25T00:38:16;16.60;;;4.80;;
14377;SDS011;7272;53.668;9.578;2023-04-25T00:41:18;16.23;;;5.50;;
14377;SDS011;7272;53.668;9.578;2023-04-25T00:44:20;13.90;;;4.73;;
14377;SDS011;7272;53.668;9.578;2023-04-25T00:47:21;11.02;;;5.22;;
14377;SDS011;7272;53.668;9.578;2023-04-25T00:50:24;13.57;;;5.50;;
14377;SDS011;7272;53.668;9.578;2023-04-25T00:53:26;16.63;;;5.23;;
14377;SDS011;7272;53.668;9.578;2023-04-25T00:56:29;17.60;;;5.67;;
14377;SDS011;7272;53.668;9.578;2023-04-25T00:59:30;15.73;;;5.40;;
14377;SDS011;7272;53.668;9.578;2023-04-25T01:02:32;16.60;;;5.47;;
14377;SDS011;7272;53.668;9.578;2023-04-25T01:05:33;11.90;;;5.40;;
14377;SDS011;7272;53.668;9.578;2023-04-25T01:08:35;14.77;;;5.13;;
14377;SDS011;7272;53.668;9.578;2023-04-25T01:11:38;13.30;;;5.17;;
14377;SDS011;7272;53.668;9.578;2023-04-25T01:14:40;12.77;;;4.67;;
14377;SDS011;7272;53.668;9.578;2023-04-25T01:17:41;10.70;;;4.83;;
14377;SDS011;7272;53.668;9.578;2023-04-25T01:20:44;14.33;;;4.67;;
14377;SDS011;7272;53.668;9.578;2023-04-25T01:23:48;12.53;;;4.70;;
14377;SDS011;7272;53.668;9.578;2023-04-25T01:26:50;11.87;;;4.73;;
14377;SDS011;7272;53.668;9.578;2023-04-25T01:29:57;13.10;;;4.73;;
14377;SDS011;7272;53.668;9.578;2023-04-25T01:32:58;13.48;;;6.13;;
14377;SDS011;7272;53.668;9.578;2023-04-25T01:36:03;13.20;;;5.28;;
14377;SDS011;7272;53.668;9.578;2023-04-25T01:39:05;12.27;;;4.50;;
14377;SDS011;7272;53.668;9.578;2023-04-25T01:42:07;12.20;;;4.90;;
14377;SDS011;7272;53.668;9.578;2023-04-25T01:45:09;10.90;;;4.23;;
14377;SDS011;7272;53.668;9.578;2023-04-25T01:48:11;13.47;;;4.97;;
14377;SDS011;7272;53.668;9.578;2023-04-25T01:51:13;12.13;;;4.33;;
14377;SDS011;7272;53.668;9.578;2023-04-25T01:54:16;13.37;;;4.63;;
14377;SDS011;7272;53.668;9.578;2023-04-25T01:57:20;15.83;;;4.60;;
14377;SDS011;7272;53.668;9.578;2023-04-25T02:00:21;9.67;;;4.37;;
14377;SDS011;7272;53.668;9.578;2023-04-25T02:03:23;9.50;;;3.87;;
14377;SDS011;7272;53.668;9.578;2023-04-25T02:06:26;10.33;;;4.00;;
14377;SDS011;7272;53.668;9.578;2023-04-25T02:09:30;8.37;;;4.00;;
14377;SDS011;7272;53.668;9.578;2023-04-25T02:12:32;12.40;;;4.87;;
14377;SDS011;7272;53.668;9.578;2023-04-25T02:15:53;12.23;;;4.53;;
14377;SDS011;7272;53.668;9.578;2023-04-25T02:18:54;13.18;;;4.95;;
14377;SDS011;7272;53.668;9.578;2023-04-25T02:21:56;11.83;;;4.23;;
14377;SDS011;7272;53.668;9.578;2023-04-25T02:24:58;11.30;;;4.10;;
14377;SDS011;7272;53.668;9.578;2023-04-25T02:28:00;11.00;;;4.27;;
14377;SDS011;7272;53.668;9.578;2023-04-25T02:31:01;13.40;;;3.87;;
14377;SDS011;7272;53.668;9.578;2023-04-25T02:34:04;11.03;;;4.33;;
14377;SDS011;7272;53.668;9.578;2023-04-25T02:37:09;12.23;;;3.90;;
14377;SDS011;7272;53.668;9.578;2023-04-25T02:40:11;13.37;;;4.93;;
14377;SDS011;7272;53.668;9.578;2023-04-25T02:43:12;10.13;;;3.57;;
14377;SDS011;7272;53.668;9.578;2023-04-25T02:46:14;16.90;;;4.63;;
14377;SDS011;7272;53.668;9.578;2023-04-25T02:49:15;11.30;;;3.63;;
14377;SDS011;7272;53.668;9.578;2023-04-25T02:52:16;8.23;;;3.73;;
14377;SDS011;7272;53.668;9.578;2023-04-25T02:55:21;13.07;;;4.33;;
14377;SDS011;7272;53.668;9.578;2023-04-25T02:58:23;7.97;;;2.97;;
14377;SDS011;7272;53.668;9.578;2023-04-25T03:01:26;17.17;;;4.20;;
14377;SDS011;7272;53.668;9.578;2023-04-25T03:04:27;11.80;;;3.93;;
14377;SDS011;7272;53.668;9.578;2023-04-25T03:07:29;8.67;;;3.90;;
14377;SDS011;7272;53.668;9.578;2023-04-25T03:10:30;9.15;;;4.07;;
14377;SDS011;7272;53.668;9.578;2023-04-25T03:13:36;10.18;;;4.00;;
14377;SDS011;7272;53.668;9.578;2023-04-25T03:16:38;10.07;;;3.80;;
14377;SDS011;7272;53.668;9.578;2023-04-25T03:19:39;11.13;;;3.57;;
14377;SDS011;7272;53.668;9.578;2023-04-25T03:22:40;8.30;;;3.57;;
14377;SDS011;7272;53.668;9.578;2023-04-25T03:25:42;7.53;;;2.67;;
14377;SDS011;7272;53.668;9.578;2023-04-25T03:28:43;9.97;;;3.80;;
14377;SDS011;7272;53.668;9.578;2023-04-25T03:31:46;10.47;;;3.27;;
14377;SDS011;7272;53.668;9.578;2023-04-25T03:34:47;13.83;;;3.80;;
14377;SDS011;7272;53.668;9.578;2023-04-25T03:37:49;7.83;;;3.27;;
14377;SDS011;7272;53.668;9.578;2023-04-25T03:40:55;9.53;;;2.90;;
14377;SDS011;7272;53.668;9.578;2023-04-25T03:44:01;10.20;;;3.57;;
14377;SDS011;7272;53.668;9.578;2023-04-25T03:47:02;8.57;;;3.83;;
14377;SDS011;7272;53.668;9.578;2023-04-25T03:50:04;9.37;;;3.50;;
14377;SDS011;7272;53.668;9.578;2023-04-25T03:53:06;8.70;;;3.40;;
14377;SDS011;7272;53.668;9.578;2023-04-25T03:56:29;12.33;;;3.23;;
14377;SDS011;7272;53.668;9.578;2023-04-25T03:59:38;7.47;;;3.00;;
14377;SDS011;7272;53.668;9.578;2023-04-25T04:02:41;10.13;;;3.60;;
14377;SDS011;7272;53.668;9.578;2023-04-25T04:05:44;9.45;;;3.65;;
14377;SDS011;7272;53.668;9.578;2023-04-25T04:08:45;6.00;;;2.87;;
14377;SDS011;7272;53.668;9.578;2023-04-25T04:11:47;10.10;;;3.00;;
14377;SDS011;7272;53.668;9.578;2023-04-25T04:14:48;9.77;;;3.63;;
14377;SDS011;7272;53.668;9.578;2023-04-25T04:17:50;7.27;;;3.37;;
14377;SDS011;7272;53.668;9.578;2023-04-25T04:20:52;11.17;;;3.57;;
14377;SDS011;7272;53.668;9.578;2023-04-25T04:23:54;8.20;;;3.10;;
14377;SDS011;7272;53.668;9.578;2023-04-25T04:26:56;10.17;;;3.37;;
14377;SDS011;7272;53.668;9.578;2023-04-25T04:30:07;7.40;;;3.00;;
14377;SDS011;7272;53.668;9.578;2023-04-25T04:33:13;6.40;;;3.50;;
14377;SDS011;7272;53.668;9.578;2023-04-25T04:36:16;8.47;;;3.10;;
14377;SDS011;7272;53.668;9.578;2023-04-25T04:39:21;14.07;;;4.73;;
14377;SDS011;7272;53.668;9.578;2023-04-25T04:42:41;11.57;;;3.50;;
14377;SDS011;7272;53.668;9.578;2023-04-25T04:45:50;9.23;;;3.27;;
14377;SDS011;7272;53.668;9.578;2023-04-25T04:49:10;10.73;;;3.30;;
14377;SDS011;7272;53.668;9.578;2023-04-25T04:52:32;12.73;;;3.60;;
14377;SDS011;7272;53.668;9.578;2023-04-25T04:55:38;9.17;;;3.57;;
14377;SDS011;7272;53.668;9.578;2023-04-25T04:59:00;7.33;;;2.83;;
14377;SDS011;7272;53.668;9.578;2023-04-25T05:02:07;8.75;;;3.70;;
14377;SDS011;7272;53.668;9.578;2023-04-25T05:05:22;8.05;;;3.92;;
14377;SDS011;7272;53.668;9.578;2023-04-25T05:08:46;9.80;;;3.37;;
14377;SDS011;7272;53.668;9.578;2023-04-25T05:12:10;9.33;;;3.77;;
14377;SDS011;7272;53.668;9.578;2023-04-25T05:15:28;10.30;;;3.80;;
14377;SDS011;7272;53.668;9.578;2023-04-25T05:18:52;8.57;;;2.83;;
14377;SDS011;7272;53.668;9.578;2023-04-25T05:22:03;8.00;;;3.53;;
14377;SDS011;7272;53.668;9.578;2023-04-25T05:25:11;6.93;;;3.20;;
14377;SDS011;7272;53.668;9.578;2023-04-25T05:28:28;6.37;;;3.00;;
14377;SDS011;7272;53.668;9.578;2023-04-25T05:31:53;7.27;;;3.57;;
14377;SDS011;7272;53.668;9.578;2023-04-25T05:34:54;7.93;;;3.00;;
14377;SDS011;7272;53.668;9.578;2023-04-25T05:38:10;6.77;;;2.73;;
14377;SDS011;7272;53.668;9.578;2023-04-25T05:41:47;9.17;;;3.43;;
14377;SDS011;7272;53.668;9.578;2023-04-25T05:45:17;6.07;;;3.00;;
14377;SDS011;7272;53.668;9.578;2023-04-25T05:48:42;7.13;;;3.13;;
14377;SDS011;7272;53.668;9.578;2023-04-25T05:51:55;10.03;;;3.20;;
14377;SDS011;7272;53.668;9.578;2023-04-25T05:55:11;6.77;;;2.90;;
14377;SDS011;7272;53.668;9.578;2023-04-25T05:58:14;9.10;;;3.50;;
14377;SDS011;7272;53.668;9.578;2023-04-25T06:01:16;13.97;;;3.53;;
14377;SDS011;7272;53.668;9.578;2023-04-25T06:04:19;11.20;;;3.07;;
14377;SDS011;7272;53.668;9.578;2023-04-25T06:07:21;9.32;;;4.05;;
14377;SDS011;7272;53.668;9.578;2023-04-25T06:10:22;8.95;;;3.85;;
14377;SDS011;7272;53.668;9.578;2023-04-25T06:13:23;9.57;;;3.57;;
14377;SDS011;7272;53.668;9.578;2023-04-25T06:16:25;10.00;;;3.27;;
14377;SDS011;7272;53.668;9.578;2023-04-25T06:19:27;5.90;;;2.80;;
14377;SDS011;7272;53.668;9.578;2023-04-25T06:22:28;9.40;;;2.87;;
14377;SDS011;7272;53.668;9.578;2023-04-25T06:25:30;7.20;;;3.07;;
14377;SDS011;7272;53.668;9.578;2023-04-25T06:28:33;7.37;;;2.33;;
14377;SDS011;7272;53.668;9.578;2023-04-25T06:31:35;7.80;;;2.90;;
14377;SDS011;7272;53.668;9.578;2023-04-25T06:34:37;9.27;;;2.83;;
14377;SDS011;7272;53.668;9.578;2023-04-25T06:37:40;10.33;;;2.70;;
14377;SDS011;7272;53.668;9.578;2023-04-25T06:40:41;5.23;;;2.37;;
14377;SDS011;7272;53.668;9.578;2023-04-25T06:43:43;8.80;;;2.67;;
14377;SDS011;7272;53.668;9.578;2023-04-25T06:47:05;5.20;;;2.63;;
14377;SDS011;7272;53.668;9.578;2023-04-25T06:50:07;5.83;;;2.70;;
14377;SDS011;7272;53.668;9.578;2023-04-25T06:53:10;8.30;;;3.40;;
14377;SDS011;7272;53.668;9.578;2023-04-25T06:56:12;5.90;;;2.37;;
14377;SDS011;7272;53.668;9.578;2023-04-25T06:59:26;9.20;;;2.60;;
14377;SDS011;7272;53.668;9.578;2023-04-25T07:02:27;6.97;;;2.70;;
14377;SDS011;7272;53.668;9.578;2023-04-25T07:05:29;8.43;;;2.80;;
14377;SDS011;7272;53.668;9.578;2023-04-25T07:08:31;5.70;;;2.50;;
14377;SDS011;7272;53.668;9.578;2023-04-25T07:11:33;8.20;;;2.90;;
14377;SDS011;7272;53.668;9.578;2023-04-25T07:14:34;6.53;;;2.70;;
14377;SDS011;7272;53.668;9.578;2023-04-25T07:17:35;7.93;;;3.03;;
14377;SDS011;7272;53.668;9.578;2023-04-25T07:20:37;6.83;;;2.20;;
14377;SDS011;7272;53.668;9.578;2023-04-25T07:23:38;4.83;;;2.20;;
14377;SDS011;7272;53.668;9.578;2023-04-25T07:26:45;5.70;;;2.33;;
14377;SDS011;7272;53.668;9.578;2023-04-25T07:30:09;6.67;;;2.63;;
14377;SDS011;7272;53.668;9.578;2023-04-25T07:33:13;5.43;;;2.40;;
14377;SDS011;7272;53.668;9.578;2023-04-25T07:36:14;5.37;;;1.80;;
14377;SDS011;7272;53.668;9.578;2023-04-25T07:39:16;11.67;;;3.10;;
14377;SDS011;7272;53.668;9.578;2023-04-25T07:42:17;5.40;;;2.10;;
14377;SDS011;7272;53.668;9.578;2023-04-25T07:45:19;5.00;;;2.50;;
14377;SDS011;7272;53.668;9.578;2023-04-25T07:48:20;10.20;;;2.33;;
14377;SDS011;7272;53.668;9.578;2023-04-25T07:51:24;7.57;;;2.67;;
14377;SDS011;7272;53.668;9.578;2023-04-25T07:54:27;5.93;;;2.37;;
14377;SDS011;7272;53.668;9.578;2023-04-25T07:57:35;9.10;;;2.40;;
14377;SDS011;7272;53.668;9.578;2023-04-25T08:00:36;6.17;;;2.60;;
14377;SDS011;7272;53.668;9.578;2023-04-25T08:04:11;7.40;;;2.87;;
14377;SDS011;7272;53.668;9.578;2023-04-25T08:07:27;5.30;;;2.27;;
14377;SDS011;7272;53.668;9.578;2023-04-25T08:10:32;9.53;;;3.00;;
14377;SDS011;7272;53.668;9.578;2023-04-25T08:13:33;6.97;;;2.47;;
14377;SDS011;7272;53.668;9.578;2023-04-25T08:16:35;8.32;;;2.75;;
14377;SDS011;7272;53.668;9.578;2023-04-25T08:19:37;6.32;;;2.78;;
14377;SDS011;7272;53.668;9.578;2023-04-25T08:22:38;5.73;;;2.37;;
14377;SDS011;7272;53.668;9.578;2023-04-25T08:26:00;6.80;;;2.23;;
14377;SDS011;7272;53.668;9.578;2023-04-25T08:29:03;7.60;;;2.63;;
14377;SDS011;7272;53.668;9.578;2023-04-25T08:32:06;4.17;;;1.63;;
14377;SDS011;7272;53.668;9.578;2023-04-25T08:35:10;3.97;;;1.63;;
14377;SDS011;7272;53.668;9.578;2023-04-25T08:38:12;4.27;;;1.73;;
14377;SDS011;7272;53.668;9.578;2023-04-25T08:41:13;3.50;;;1.60;;
14377;SDS011;7272;53.668;9.578;2023-04-25T08:44:15;4.87;;;2.20;;
14377;SDS011;7272;53.668;9.578;2023-04-25T08:47:17;2.73;;;1.60;;
14377;SDS011;7272;53.668;9.578;2023-04-25T08:50:27;6.10;;;1.87;;
14377;SDS011;7272;53.668;9.578;2023-04-25T08:53:29;7.40;;;1.97;;
14377;SDS011;7272;53.668;9.578;2023-04-25T08:56:34;5.60;;;1.90;;
14377;SDS011;7272;53.668;9.578;2023-04-25T08:59:37;6.03;;;2.30;;
14377;SDS011;7272;53.668;9.578;2023-04-25T09:02:40;6.83;;;2.73;;
14377;SDS011;7272;53.668;9.578;2023-04-25T09:05:43;8.57;;;2.50;;
14377;SDS011;7272;53.668;9.578;2023-04-25T09:08:45;5.97;;;2.47;;
14377;SDS011;7272;53.668;9.578;2023-04-25T09:11:46;4.23;;;2.30;;
14377;SDS011;7272;53.668;9.578;2023-04-25T09:18:33;7.40;;;2.78;;
14377;SDS011;7272;53.668;9.578;2023-04-25T09:21:35;5.80;;;2.43;;
14377;SDS011;7272;53.668;9.578;2023-04-25T09:24:38;7.03;;;3.07;;
14377;SDS011;7272;53.668;9.578;2023-04-25T09:27:51;8.37;;;2.60;;
14377;SDS011;7272;53.668;9.578;2023-04-25T09:30:57;4.27;;;2.23;;
14377;SDS011;7272;53.668;9.578;2023-04-25T09:34:05;4.97;;;2.40;;
14377;SDS011;7272;53.668;9.578;2023-04-25T09:37:19;4.53;;;2.43;;
14377;SDS011;7272;53.668;9.578;2023-04-25T09:40:40;3.17;;;1.23;;
14377;SDS011;7272;53.668;9.578;2023-04-25T09:43:50;5.20;;;1.57;;
14377;SDS011;7272;53.668;9.578;2023-04-25T09:46:51;5.27;;;1.70;;
14377;SDS011;7272;53.668;9.578;2023-04-25T09:49:55;4.47;;;2.03;;
14377;SDS011;7272;53.668;9.578;2023-04-25T09:53:02;7.00;;;1.97;;
14377;SDS011;7272;53.668;9.578;2023-04-25T09:56:07;7.13;;;1.97;;
14377;SDS011;7272;53.668;9.578;2023-04-25T09:59:09;2.60;;;1.53;;
14377;SDS011;7272;53.668;9.578;2023-04-25T10:02:14;4.37;;;2.30;;
14377;SDS011;7272;53.668;9.578;2023-04-25T10:05:19;6.57;;;2.58;;
14377;SDS011;7272;53.668;9.578;2023-04-25T10:08:21;6.65;;;2.50;;
14377;SDS011;7272;53.668;9.578;2023-04-25T10:11:25;4.50;;;1.90;;
14377;SDS011;7272;53.668;9.578;2023-04-25T10:14:28;5.20;;;2.40;;
14377;SDS011;7272;53.668;9.578;2023-04-25T10:17:31;7.03;;;1.93;;
14377;SDS011;7272;53.668;9.578;2023-04-25T10:20:33;5.97;;;1.57;;
14377;SDS011;7272;53.668;9.578;2023-04-25T10:23:34;4.80;;;1.77;;
14377;SDS011;7272;53.668;9.578;2023-04-25T10:26:38;5.80;;;2.20;;
14377;SDS011;7272;53.668;9.578;2023-04-25T10:29:40;4.53;;;2.03;;
14377;SDS011;7272;53.668;9.578;2023-04-25T10:32:43;3.87;;;2.00;;
14377;SDS011;7272;53.668;9.578;2023-04-25T10:35:45;6.10;;;2.23;;
14377;SDS011;7272;53.668;9.578;2023-04-25T10:38:47;6.60;;;2.00;;
14377;SDS011;7272;53.668;9.578;2023-04-25T10:41:55;5.23;;;2.20;;
14377;SDS011;7272;53.668;9.578;2023-04-25T10:45:01;3.10;;;1.50;;
14377;SDS011;7272;53.668;9.578;2023-04-25T10:48:04;4.63;;;1.90;;
14377;SDS011;7272;53.668;9.578;2023-04-25T10:51:26;6.20;;;1.70;;
14377;SDS011;7272;53.668;9.578;2023-04-25T10:54:28;5.30;;;2.10;;
14377;SDS011;7272;53.668;9.578;2023-04-25T10:57:36;4.15;;;1.88;;
14377;SDS011;7272;53.668;9.578;2023-04-25T11:00:38;7.27;;;2.20;;
14377;SDS011;7272;53.668;9.578;2023-04-25T11:03:41;7.70;;;2.67;;
14377;SDS011;7272;53.668;9.578;2023-04-25T11:06:46;4.47;;;1.80;;
14377;SDS011;7272;53.668;9.578;2023-04-25T11:09:55;5.97;;;1.87;;
14377;SDS011;7272;53.668;9.578;2023-04-25T11:12:57;3.73;;;1.30;;
14377;SDS011;7272;53.668;9.578;2023-04-25T11:15:58;4.30;;;1.60;;
14377;SDS011;7272;53.668;9.578;2023-04-25T11:19:00;4.77;;;1.73;;
14377;SDS011;7272;53.668;9.578;2023-04-25T11:22:01;5.30;;;1.90;;
14377;SDS011;7272;53.668;9.578;2023-04-25T11:25:04;4.17;;;1.97;;
14377;SDS011;7272;53.668;9.578;2023-04-25T11:28:07;4.63;;;1.97;;
14377;SDS011;7272;53.668;9.578;2023-04-25T11:31:08;5.33;;;1.60;;
14377;SDS011;7272;53.668;9.578;2023-04-25T11:34:10;5.07;;;1.60;;
14377;SDS011;7272;53.668;9.578;2023-04-25T11:37:12;4.03;;;1.23;;
14377;SDS011;7272;53.668;9.578;2023-04-25T11:40:13;2.30;;;1.10;;
14377;SDS011;7272;53.668;9.578;2023-04-25T11:43:15;4.22;;;1.50;;
14377;SDS011;7272;53.668;9.578;2023-04-25T11:46:17;4.03;;;1.40;;
14377;SDS011;7272;53.668;9.578;2023-04-25T11:49:20;4.23;;;1.80;;
14377;SDS011;7272;53.668;9.578;2023-04-25T11:52:22;3.17;;;1.30;;
14377;SDS011;7272;53.668;9.578;2023-04-25T11:55:23;4.57;;;1.50;;
14377;SDS011;7272;53.668;9.578;2023-04-25T11:58:25;4.37;;;1.73;;
14377;SDS011;7272;53.668;9.578;2023-04-25T12:01:28;6.40;;;2.07;;
14377;SDS011;7272;53.668;9.578;2023-04-25T12:04:30;4.20;;;1.63;;
14377;SDS011;7272;53.668;9.578;2023-04-25T12:07:32;2.03;;;1.50;;
14377;SDS011;7272;53.668;9.578;2023-04-25T12:10:33;3.23;;;1.67;;
14377;SDS011;7272;53.668;9.578;2023-04-25T12:13:39;4.03;;;1.70;;
14377;SDS011;7272;53.668;9.578;2023-04-25T12:16:40;4.87;;;1.67;;
14377;SDS011;7272;53.668;9.578;2023-04-25T12:19:42;7.17;;;1.90;;
14377;SDS011;7272;53.668;9.578;2023-04-25T12:22:47;7.20;;;2.13;;
14377;SDS011;7272;53.668;9.578;2023-04-25T12:25:49;2.80;;;1.10;;
14377;SDS011;7272;53.668;9.578;2023-04-25T12:28:51;5.70;;;2.03;;
14377;SDS011;7272;53.668;9.578;2023-04-25T12:31:52;4.40;;;2.07;;
14377;SDS011;7272;53.668;9.578;2023-04-25T12:34:54;2.23;;;1.20;;
14377;SDS011;7272;53.668;9.578;2023-04-25T12:37:56;3.53;;;1.57;;
14377;SDS011;7272;53.668;9.578;2023-04-25T12:40:57;4.37;;;1.43;;
14377;SDS011;7272;53.668;9.578;2023-04-25T12:43:59;3.73;;;1.60;;
14377;SDS011;7272;53.668;9.578;2023-04-25T12:47:01;6.17;;;1.90;;
14377;SDS011;7272;53.668;9.578;2023-04-25T12:50:03;3.77;;;1.87;;
14377;SDS011;7272;53.668;9.578;2023-04-25T12:53:04;3.00;;;2.00;;
14377;SDS011;7272;53.668;9.578;2023-04-25T12:56:06;5.53;;;1.87;;
14377;SDS011;7272;53.668;9.578;2023-04-25T12:59:08;3.57;;;1.80;;
14377;SDS011;7272;53.668;9.578;2023-04-25T13:02:09;4.63;;;1.90;;
14377;SDS011;7272;53.668;9.578;2023-04-25T13:05:11;5.30;;;2.07;;
14377;SDS011;7272;53.668;9.578;2023-04-25T13:08:12;4.80;;;2.50;;
14377;SDS011;7272;53.668;9.578;2023-04-25T13:11:14;5.07;;;2.60;;
14377;SDS011;7272;53.668;9.578;2023-04-25T13:14:16;5.93;;;2.20;;
14377;SDS011;7272;53.668;9.578;2023-04-25T13:17:17;7.60;;;2.53;;
14377;SDS011;7272;53.668;9.578;2023-04-25T13:20:18;4.27;;;1.70;;
14377;SDS011;7272;53.668;9.578;2023-04-25T13:23:22;2.67;;;1.53;;
14377;SDS011;7272;53.668;9.578;2023-04-25T13:26:23;5.30;;;1.60;;
14377;SDS011;7272;53.668;9.578;2023-04-25T13:29:25;2.77;;;1.80;;
14377;SDS011;7272;53.668;9.578;2023-04-25T13:32:27;3.97;;;1.83;;
14377;SDS011;7272;53.668;9.578;2023-04-25T13:35:28;5.03;;;1.95;;
14377;SDS011;7272;53.668;9.578;2023-04-25T13:38:30;4.43;;;1.97;;
14377;SDS011;7272;53.668;9.578;2023-04-25T13:41:31;5.78;;;2.53;;
14377;SDS011;7272;53.668;9.578;2023-04-25T13:44:33;4.07;;;2.50;;
14377;SDS011;7272;53.668;9.578;2023-04-25T13:47:34;7.87;;;2.60;;
14377;SDS011;7272;53.668;9.578;2023-04-25T13:50:36;5.97;;;2.70;;
14377;SDS011;7272;53.668;9.578;2023-04-25T13:53:37;4.43;;;2.13;;
14377;SDS011;7272;53.668;9.578;2023-04-25T13:56:39;4.80;;;1.87;;
14377;SDS011;7272;53.668;9.578;2023-04-25T13:59:42;5.80;;;2.33;;
14377;SDS011;7272;53.668;9.578;2023-04-25T14:02:44;6.20;;;2.47;;
14377;SDS011;7272;53.668;9.578;2023-04-25T14:05:45;3.97;;;1.83;;
14377;SDS011;7272;53.668;9.578;2023-04-25T14:08:46;4.47;;;1.50;;
14377;SDS011;7272;53.668;9.578;2023-04-25T14:11:47;5.60;;;1.90;;
14377;SDS011;7272;53.668;9.578;2023-04-25T14:14:49;6.20;;;1.97;;
14377;SDS011;7272;53.668;9.578;2023-04-25T14:17:50;5.18;;;1.92;;
14377;SDS011;7272;53.668;9.578;2023-04-25T14:20:51;5.57;;;1.90;;
14377;SDS011;7272;53.668;9.578;2023-04-25T14:23:53;5.27;;;1.73;;
14377;SDS011;7272;53.668;9.578;2023-04-25T14:26:54;5.37;;;1.63;;
14377;SDS011;7272;53.668;9.578;2023-04-25T14:29:56;5.63;;;2.20;;
14377;SDS011;7272;53.668;9.578;2023-04-25T14:32:57;4.97;;;1.80;;
14377;SDS011;7272;53.668;9.578;2023-04-25T14:35:59;4.47;;;1.60;;
14377;SDS011;7272;53.668;9.578;2023-04-25T14:39:00;4.97;;;2.13;;
14377;SDS011;7272;53.668;9.578;2023-04-25T14:42:01;9.30;;;3.20;;
14377;SDS011;7272;53.668;9.578;2023-04-25T14:45:04;8.87;;;2.00;;
14377;SDS011;7272;53.668;9.578;2023-04-25T14:48:06;6.13;;;2.20;;
14377;SDS011;7272;53.668;9.578;2023-04-25T14:51:07;7.80;;;2.70;;
14377;SDS011;7272;53.668;9.578;2023-04-25T14:54:09;6.93;;;2.78;;
14377;SDS011;7272;53.668;9.578;2023-04-25T14:57:12;6.63;;;2.10;;
14377;SDS011;7272;53.668;9.578;2023-04-25T15:00:14;4.90;;;2.30;;
14377;SDS011;7272;53.668;9.578;2023-04-25T15:03:17;7.40;;;2.33;;
14377;SDS011;7272;53.668;9.578;2023-04-25T15:06:18;6.47;;;2.00;;
14377;SDS011;7272;53.668;9.578;2023-04-25T15:09:19;7.70;;;2.03;;
14377;SDS011;7272;53.668;9.578;2023-04-25T15:12:20;5.73;;;2.53;;
14377;SDS011;7272;53.668;9.578;2023-04-25T15:15:22;6.47;;;1.93;;
14377;SDS011;7272;53.668;9.578;2023-04-25T15:18:23;7.57;;;1.90;;
14377;SDS011;7272;53.668;9.578;2023-04-25T15:21:25;6.30;;;1.80;;
14377;SDS011;7272;53.668;9.578;2023-04-25T15:24:26;5.10;;;2.00;;
14377;SDS011;7272;53.668;9.578;2023-04-25T15:27:27;8.02;;;2.35;;
14377;SDS011;7272;53.668;9.578;2023-04-25T15:30:29;7.23;;;1.80;;
14377;SDS011;7272;53.668;9.578;2023-04-25T15:33:31;4.83;;;1.80;;
14377;SDS011;7272;53.668;9.578;2023-04-25T15:36:32;4.43;;;2.03;;
14377;SDS011;7272;53.668;9.578;2023-04-25T15:39:33;3.60;;;1.40;;
14377;SDS011;7272;53.668;9.578;2023-04-25T15:42:34;5.20;;;1.53;;
14377;SDS011;7272;53.668;9.578;2023-04-25T15:45:36;3.03;;;1.70;;
14377;SDS011;7272;53.668;9.578;2023-04-25T15:48:38;4.50;;;2.10;;
14377;SDS011;7272;53.668;9.578;2023-04-25T15:51:39;5.10;;;1.80;;
14377;SDS011;7272;53.668;9.578;2023-04-25T15:54:40;4.20;;;1.53;;
14377;SDS011;7272;53.668;9.578;2023-04-25T15:57:42;3.17;;;1.30;;
14377;SDS011;7272;53.668;9.578;2023-04-25T16:00:44;3.55;;;1.90;;
14377;SDS011;7272;53.668;9.578;2023-04-25T16:03:48;4.70;;;1.60;;
14377;SDS011;7272;53.668;9.578;2023-04-25T16:06:50;3.03;;;1.50;;
14377;SDS011;7272;53.668;9.578;2023-04-25T16:09:51;4.93;;;1.60;;
14377;SDS011;7272;53.668;9.578;2023-04-25T16:12:52;1.77;;;1.30;;
14377;SDS011;7272;53.668;9.578;2023-04-25T16:15:54;2.50;;;1.47;;
14377;SDS011;7272;53.668;9.578;2023-04-25T16:18:55;3.73;;;1.40;;
14377;SDS011;7272;53.668;9.578;2023-04-25T16:21:56;5.50;;;1.67;;
14377;SDS011;7272;53.668;9.578;2023-04-25T16:24:58;5.00;;;1.83;;
14377;SDS011;7272;53.668;9.578;2023-04-25T16:27:59;4.83;;;1.60;;
14377;SDS011;7272;53.668;9.578;2023-04-25T16:31:01;6.67;;;1.80;;
14377;SDS011;7272;53.668;9.578;2023-04-25T16:34:02;4.80;;;1.90;;
14377;SDS011;7272;53.668;9.578;2023-04-25T16:37:03;7.05;;;2.83;;
14377;SDS011;7272;53.668;9.578;2023-04-25T16:40:05;5.37;;;1.53;;
14377;SDS011;7272;53.668;9.578;2023-04-25T16:43:08;5.53;;;2.00;;
14377;SDS011;7272;53.668;9.578;2023-04-25T16:46:10;4.77;;;1.63;;
14377;SDS011;7272;53.668;9.578;2023-04-25T16:49:11;4.30;;;1.57;;
14377;SDS011;7272;53.668;9.578;2023-04-25T16:52:12;7.03;;;2.07;;
14377;SDS011;7272;53.668;9.578;2023-04-25T16:55:15;3.47;;;1.47;;
14377;SDS011;7272;53.668;9.578;2023-04-25T16:58:16;2.50;;;1.57;;
14377;SDS011;7272;53.668;9.578;2023-04-25T17:01:18;5.03;;;1.43;;
14377;SDS011;7272;53.668;9.578;2023-04-25T17:04:20;3.83;;;1.50;;
14377;SDS011;7272;53.668;9.578;2023-04-25T17:07:21;5.17;;;2.57;;
14377;SDS011;7272;53.668;9.578;2023-04-25T17:10:23;3.72;;;1.92;;
14377;SDS011;7272;53.668;9.578;2023-04-25T17:13:25;7.43;;;1.85;;
14377;SDS011;7272;53.668;9.578;2023-04-25T17:16:33;3.53;;;1.43;;
14377;SDS011;7272;53.668;9.578;2023-04-25T17:19:35;4.77;;;1.73;;
14377;SDS011;7272;53.668;9.578;2023-04-25T17:22:36;4.63;;;1.63;;
14377;SDS011;7272;53.668;9.578;2023-04-25T17:25:37;6.97;;;1.70;;
14377;SDS011;7272;53.668;9.578;2023-04-25T17:28:39;5.00;;;1.90;;
14377;SDS011;7272;53.668;9.578;2023-04-25T17:31:42;7.77;;;2.30;;
14377;SDS011;7272;53.668;9.578;2023-04-25T17:34:44;4.33;;;1.70;;
14377;SDS011;7272;53.668;9.578;2023-04-25T17:37:45;8.20;;;2.40;;
14377;SDS011;7272;53.668;9.578;2023-04-25T17:40:46;5.17;;;1.97;;
14377;SDS011;7272;53.668;9.578;2023-04-25T17:43:47;5.77;;;2.30;;
14377;SDS011;7272;53.668;9.578;2023-04-25T17:46:49;4.95;;;2.00;;
14377;SDS011;7272;53.668;9.578;2023-04-25T17:49:50;5.50;;;2.20;;
14377;SDS011;7272;53.668;9.578;2023-04-25T17:52:52;5.03;;;2.10;;
14377;SDS011;7272;53.668;9.578;2023-04-25T17:55:53;5.20;;;1.73;;
14377;SDS011;7272;53.668;9.578;2023-04-25T17:58:55;4.07;;;2.07;;
14377;SDS011;7272;53.668;9.578;2023-04-25T18:01:57;5.27;;;1.50;;
14377;SDS011;7272;53.668;9.578;2023-04-25T18:05:00;6.03;;;2.20;;
14377;SDS011;7272;53.668;9.578;2023-04-25T18:08:04;3.87;;;1.83;;
14377;SDS011;7272;53.668;9.578;2023-04-25T18:11:05;4.33;;;1.83;;
14377;SDS011;7272;53.668;9.578;2023-04-25T18:14:07;5.73;;;1.50;;
14377;SDS011;7272;53.668;9.578;2023-04-25T18:17:14;6.00;;;2.10;;
14377;SDS011;7272;53.668;9.578;2023-04-25T18:20:16;4.00;;;1.70;;
14377;SDS011;7272;53.668;9.578;2023-04-25T18:23:18;6.30;;;2.27;;
14377;SDS011;7272;53.668;9.578;2023-04-25T18:26:19;5.82;;;2.60;;
14377;SDS011;7272;53.668;9.578;2023-04-25T18:29:21;7.63;;;2.15;;
14377;SDS011;7272;53.668;9.578;2023-04-25T18:32:23;7.83;;;2.23;;
14377;SDS011;7272;53.668;9.578;2023-04-25T18:35:24;4.17;;;1.70;;
14377;SDS011;7272;53.668;9.578;2023-04-25T18:38:26;4.10;;;1.60;;
14377;SDS011;7272;53.668;9.578;2023-04-25T18:41:27;7.07;;;1.97;;
14377;SDS011;7272;53.668;9.578;2023-04-25T18:44:29;4.00;;;1.70;;